sensor_id;sensor_type;location;lat;lon;timestamp;temperature;humidity
17202;DHT22;8717;53.588;10.176;2023-06-14T00:01:59;14.00;99.90
17202;DHT22;8717;53.588;10.176;2023-06-14T00:04:26;14.00;99.90
17202;DHT22;8717;53.588;10.176;2023-06-14T00:06:55;14.00;99.90
17202;DHT22;8717;53.588;10.176;2023-06-14T00:09:22;13.90;99.90
17202;DHT22;8717;53.588;10.176;2023-06-14T00:11:49;13.90;99.90
17202;DHT22;8717;53.588;10.176;2023-06-14T00:14:17;13.90;99.90
17202;DHT22;8717;53.588;10.176;2023-06-14T00:16:44;13.80;99.90
17202;DHT22;8717;53.588;10.176;2023-06-14T00:19:11;13.80;99.90
17202;DHT22;8717;53.588;10.176;2023-06-14T00:21:38;13.80;99.90
17202;DHT22;8717;53.588;10.176;2023-06-14T00:24:05;13.80;99.90
17202;DHT22;8717;53.588;10.176;2023-06-14T00:26:32;13.80;99.90
17202;DHT22;8717;53.588;10.176;2023-06-14T00:28:59;13.70;99.90
17202;DHT22;8717;53.588;10.176;2023-06-14T00:31:29;13.70;99.90
17202;DHT22;8717;53.588;10.176;2023-06-14T00:33:56;13.70;99.90
17202;DHT22;8717;53.588;10.176;2023-06-14T00:36:23;13.60;99.90
17202;DHT22;8717;53.588;10.176;2023-06-14T00:38:49;13.60;99.90
17202;DHT22;8717;53.588;10.176;2023-06-14T00:41:16;13.60;99.90
17202;DHT22;8717;53.588;10.176;2023-06-14T00:43:43;13.60;99.90
17202;DHT22;8717;53.588;10.176;2023-06-14T00:46:09;13.60;99.90
17202;DHT22;8717;53.588;10.176;2023-06-14T00:48:39;13.50;99.90
17202;DHT22;8717;53.588;10.176;2023-06-14T00:51:06;13.50;99.90
17202;DHT22;8717;53.588;10.176;2023-06-14T00:53:33;13.50;99.90
17202;DHT22;8717;53.588;10.176;2023-06-14T00:56:01;13.50;99.90
17202;DHT22;8717;53.588;10.176;2023-06-14T00:58:28;13.40;99.90
17202;DHT22;8717;53.588;10.176;2023-06-14T01:00:55;13.40;99.90
17202;DHT22;8717;53.588;10.176;2023-06-14T01:03:23;13.40;99.90
17202;DHT22;8717;53.588;10.176;2023-06-14T01:05:56;13.40;99.90
17202;DHT22;8717;53.588;10.176;2023-06-14T01:08:34;13.40;99.90
17202;DHT22;8717;53.588;10.176;2023-06-14T01:11:09;13.30;99.90
17202;DHT22;8717;53.588;10.176;2023-06-14T01:13:39;13.30;99.90
17202;DHT22;8717;53.588;10.176;2023-06-14T01:16:08;13.30;99.90
17202;DHT22;8717;53.588;10.176;2023-06-14T01:18:35;13.30;99.90
17202;DHT22;8717;53.588;10.176;2023-06-14T01:21:04;13.20;99.90
17202;DHT22;8717;53.588;10.176;2023-06-14T01:23:33;13.20;99.90
17202;DHT22;8717;53.588;10.176;2023-06-14T01:26:00;13.20;99.90
17202;DHT22;8717;53.588;10.176;2023-06-14T01:28:31;13.10;99.90
17202;DHT22;8717;53.588;10.176;2023-06-14T01:31:01;13.10;99.90
17202;DHT22;8717;53.588;10.176;2023-06-14T01:33:31;13.10;99.90
17202;DHT22;8717;53.588;10.176;2023-06-14T01:35:59;13.00;99.90
17202;DHT22;8717;53.588;10.176;2023-06-14T01:38:30;13.00;99.90
17202;DHT22;8717;53.588;10.176;2023-06-14T01:41:00;13.00;99.90
17202;DHT22;8717;53.588;10.176;2023-06-14T01:43:30;12.90;99.90
17202;DHT22;8717;53.588;10.176;2023-06-14T01:45:57;12.90;99.90
17202;DHT22;8717;53.588;10.176;2023-06-14T01:48:26;12.90;99.90
17202;DHT22;8717;53.588;10.176;2023-06-14T01:50:53;12.90;99.90
17202;DHT22;8717;53.588;10.176;2023-06-14T01:53:20;12.80;99.90
17202;DHT22;8717;53.588;10.176;2023-06-14T01:55:48;12.80;99.90
17202;DHT22;8717;53.588;10.176;2023-06-14T01:58:16;12.80;99.90
17202;DHT22;8717;53.588;10.176;2023-06-14T02:00:43;12.80;99.90
17202;DHT22;8717;53.588;10.176;2023-06-14T02:03:11;12.80;99.90
17202;DHT22;8717;53.588;10.176;2023-06-14T02:05:38;12.80;99.90
17202;DHT22;8717;53.588;10.176;2023-06-14T02:08:06;12.80;99.90
17202;DHT22;8717;53.588;10.176;2023-06-14T02:10:33;12.70;99.90
17202;DHT22;8717;53.588;10.176;2023-06-14T02:13:00;12.70;99.90
17202;DHT22;8717;53.588;10.176;2023-06-14T02:15:28;12.70;99.90
17202;DHT22;8717;53.588;10.176;2023-06-14T02:18:00;12.60;99.90
17202;DHT22;8717;53.588;10.176;2023-06-14T02:20:27;12.60;99.90
17202;DHT22;8717;53.588;10.176;2023-06-14T02:22:56;12.60;99.90
17202;DHT22;8717;53.588;10.176;2023-06-14T02:25:23;12.60;99.90
17202;DHT22;8717;53.588;10.176;2023-06-14T02:27:52;12.60;99.90
17202;DHT22;8717;53.588;10.176;2023-06-14T02:30:19;12.60;99.90
17202;DHT22;8717;53.588;10.176;2023-06-14T02:32:47;12.50;99.90
17202;DHT22;8717;53.588;10.176;2023-06-14T02:35:16;12.50;99.90
17202;DHT22;8717;53.588;10.176;2023-06-14T02:37:43;12.50;99.90
17202;DHT22;8717;53.588;10.176;2023-06-14T02:40:10;12.50;99.90
17202;DHT22;8717;53.588;10.176;2023-06-14T02:42:37;12.50;99.90
17202;DHT22;8717;53.588;10.176;2023-06-14T02:45:05;12.40;99.90
17202;DHT22;8717;53.588;10.176;2023-06-14T02:47:32;12.40;99.90
17202;DHT22;8717;53.588;10.176;2023-06-14T02:50:01;12.40;99.90
17202;DHT22;8717;53.588;10.176;2023-06-14T02:52:28;12.40;99.90
17202;DHT22;8717;53.588;10.176;2023-06-14T02:54:55;12.40;99.90
17202;DHT22;8717;53.588;10.176;2023-06-14T02:57:22;12.40;99.90
17202;DHT22;8717;53.588;10.176;2023-06-14T02:59:49;12.40;99.90
17202;DHT22;8717;53.588;10.176;2023-06-14T03:02:17;12.30;99.90
17202;DHT22;8717;53.588;10.176;2023-06-14T03:04:45;12.30;99.90
17202;DHT22;8717;53.588;10.176;2023-06-14T03:07:16;12.30;99.90
17202;DHT22;8717;53.588;10.176;2023-06-14T03:09:46;12.30;99.90
17202;DHT22;8717;53.588;10.176;2023-06-14T03:12:15;12.30;99.90
17202;DHT22;8717;53.588;10.176;2023-06-14T03:14:42;12.30;99.90
17202;DHT22;8717;53.588;10.176;2023-06-14T03:17:13;12.30;99.90
17202;DHT22;8717;53.588;10.176;2023-06-14T03:19:41;12.30;99.90
17202;DHT22;8717;53.588;10.176;2023-06-14T03:22:08;12.30;99.90
17202;DHT22;8717;53.588;10.176;2023-06-14T03:24:39;12.30;99.90
17202;DHT22;8717;53.588;10.176;2023-06-14T03:27:11;12.30;99.90
17202;DHT22;8717;53.588;10.176;2023-06-14T03:29:43;12.30;99.90
17202;DHT22;8717;53.588;10.176;2023-06-14T03:32:10;12.30;99.90
17202;DHT22;8717;53.588;10.176;2023-06-14T03:34:40;12.30;99.90
17202;DHT22;8717;53.588;10.176;2023-06-14T03:37:13;12.30;99.90
17202;DHT22;8717;53.588;10.176;2023-06-14T03:39:41;12.30;99.90
17202;DHT22;8717;53.588;10.176;2023-06-14T03:42:14;12.40;99.90
17202;DHT22;8717;53.588;10.176;2023-06-14T03:44:42;12.40;99.90
17202;DHT22;8717;53.588;10.176;2023-06-14T03:47:09;12.40;99.90
17202;DHT22;8717;53.588;10.176;2023-06-14T03:49:36;12.40;99.90
17202;DHT22;8717;53.588;10.176;2023-06-14T03:52:04;12.40;99.90
17202;DHT22;8717;53.588;10.176;2023-06-14T03:54:32;12.50;99.90
17202;DHT22;8717;53.588;10.176;2023-06-14T03:57:00;12.50;99.90
17202;DHT22;8717;53.588;10.176;2023-06-14T03:59:28;12.60;99.90
17202;DHT22;8717;53.588;10.176;2023-06-14T04:01:55;12.60;99.90
17202;DHT22;8717;53.588;10.176;2023-06-14T04:04:22;12.60;99.90
17202;DHT22;8717;53.588;10.176;2023-06-14T04:06:56;12.60;99.90
17202;DHT22;8717;53.588;10.176;2023-06-14T04:09:24;12.70;99.90
17202;DHT22;8717;53.588;10.176;2023-06-14T04:11:51;12.70;99.90
17202;DHT22;8717;53.588;10.176;2023-06-14T04:14:20;12.80;99.90
17202;DHT22;8717;53.588;10.176;2023-06-14T04:16:47;12.80;99.90
17202;DHT22;8717;53.588;10.176;2023-06-14T04:19:17;12.90;99.90
17202;DHT22;8717;53.588;10.176;2023-06-14T04:21:44;12.90;99.90
17202;DHT22;8717;53.588;10.176;2023-06-14T04:24:11;12.90;99.90
17202;DHT22;8717;53.588;10.176;2023-06-14T04:26:40;13.00;99.90
17202;DHT22;8717;53.588;10.176;2023-06-14T04:29:11;13.00;99.90
17202;DHT22;8717;53.588;10.176;2023-06-14T04:31:42;13.10;99.90
17202;DHT22;8717;53.588;10.176;2023-06-14T04:34:11;13.10;99.90
17202;DHT22;8717;53.588;10.176;2023-06-14T04:36:45;13.10;99.90
17202;DHT22;8717;53.588;10.176;2023-06-14T04:39:15;13.20;99.90
17202;DHT22;8717;53.588;10.176;2023-06-14T04:41:43;13.20;99.90
17202;DHT22;8717;53.588;10.176;2023-06-14T04:44:10;13.20;99.90
17202;DHT22;8717;53.588;10.176;2023-06-14T04:46:44;13.30;99.90
17202;DHT22;8717;53.588;10.176;2023-06-14T04:49:14;13.30;99.90
17202;DHT22;8717;53.588;10.176;2023-06-14T04:51:42;13.40;99.90
17202;DHT22;8717;53.588;10.176;2023-06-14T04:54:09;13.40;99.90
17202;DHT22;8717;53.588;10.176;2023-06-14T04:56:40;13.50;99.90
17202;DHT22;8717;53.588;10.176;2023-06-14T04:59:08;13.50;99.90
17202;DHT22;8717;53.588;10.176;2023-06-14T05:01:37;13.60;99.90
17202;DHT22;8717;53.588;10.176;2023-06-14T05:04:05;13.60;99.90
17202;DHT22;8717;53.588;10.176;2023-06-14T05:06:32;13.60;99.90
17202;DHT22;8717;53.588;10.176;2023-06-14T05:08:58;13.70;99.90
17202;DHT22;8717;53.588;10.176;2023-06-14T05:11:26;13.70;99.90
17202;DHT22;8717;53.588;10.176;2023-06-14T05:13:53;13.80;99.90
17202;DHT22;8717;53.588;10.176;2023-06-14T05:16:20;13.90;99.90
17202;DHT22;8717;53.588;10.176;2023-06-14T05:18:51;14.00;99.90
17202;DHT22;8717;53.588;10.176;2023-06-14T05:21:19;14.00;99.90
17202;DHT22;8717;53.588;10.176;2023-06-14T05:23:45;14.10;99.90
17202;DHT22;8717;53.588;10.176;2023-06-14T05:26:12;14.10;99.90
17202;DHT22;8717;53.588;10.176;2023-06-14T05:28:39;14.20;99.90
17202;DHT22;8717;53.588;10.176;2023-06-14T05:31:06;14.30;99.90
17202;DHT22;8717;53.588;10.176;2023-06-14T05:33:33;14.30;99.90
17202;DHT22;8717;53.588;10.176;2023-06-14T05:36:00;14.40;99.90
17202;DHT22;8717;53.588;10.176;2023-06-14T05:38:29;14.40;99.90
17202;DHT22;8717;53.588;10.176;2023-06-14T05:40:56;14.50;99.90
17202;DHT22;8717;53.588;10.176;2023-06-14T05:43:23;14.60;99.90
17202;DHT22;8717;53.588;10.176;2023-06-14T05:45:50;14.60;99.90
17202;DHT22;8717;53.588;10.176;2023-06-14T05:48:17;14.70;99.90
17202;DHT22;8717;53.588;10.176;2023-06-14T05:50:43;14.70;99.90
17202;DHT22;8717;53.588;10.176;2023-06-14T05:53:10;14.80;99.90
17202;DHT22;8717;53.588;10.176;2023-06-14T05:55:39;14.90;99.90
17202;DHT22;8717;53.588;10.176;2023-06-14T05:58:06;15.00;99.90
17202;DHT22;8717;53.588;10.176;2023-06-14T06:00:33;15.10;99.90
17202;DHT22;8717;53.588;10.176;2023-06-14T06:02:59;15.10;99.90
17202;DHT22;8717;53.588;10.176;2023-06-14T06:05:26;15.20;99.90
17202;DHT22;8717;53.588;10.176;2023-06-14T06:07:53;15.30;99.90
17202;DHT22;8717;53.588;10.176;2023-06-14T06:10:20;15.40;99.90
17202;DHT22;8717;53.588;10.176;2023-06-14T06:12:48;15.50;99.90
17202;DHT22;8717;53.588;10.176;2023-06-14T06:15:17;15.50;99.90
17202;DHT22;8717;53.588;10.176;2023-06-14T06:17:44;15.60;99.90
17202;DHT22;8717;53.588;10.176;2023-06-14T06:20:11;15.60;99.90
17202;DHT22;8717;53.588;10.176;2023-06-14T06:22:38;15.70;99.90
17202;DHT22;8717;53.588;10.176;2023-06-14T06:25:06;15.70;99.90
17202;DHT22;8717;53.588;10.176;2023-06-14T06:27:34;15.80;99.90
17202;DHT22;8717;53.588;10.176;2023-06-14T06:30:03;15.80;99.90
17202;DHT22;8717;53.588;10.176;2023-06-14T06:32:29;16.00;99.90
17202;DHT22;8717;53.588;10.176;2023-06-14T06:34:56;16.10;99.90
17202;DHT22;8717;53.588;10.176;2023-06-14T06:37:25;16.30;99.90
17202;DHT22;8717;53.588;10.176;2023-06-14T06:39:51;16.40;99.90
17202;DHT22;8717;53.588;10.176;2023-06-14T06:42:18;16.60;99.90
17202;DHT22;8717;53.588;10.176;2023-06-14T06:44:49;16.70;99.90
17202;DHT22;8717;53.588;10.176;2023-06-14T06:47:17;16.80;99.90
17202;DHT22;8717;53.588;10.176;2023-06-14T06:49:43;16.90;99.90
17202;DHT22;8717;53.588;10.176;2023-06-14T06:52:10;17.00;99.90
17202;DHT22;8717;53.588;10.176;2023-06-14T06:54:37;17.10;99.90
17202;DHT22;8717;53.588;10.176;2023-06-14T06:57:04;17.20;99.90
17202;DHT22;8717;53.588;10.176;2023-06-14T06:59:31;17.40;99.90
17202;DHT22;8717;53.588;10.176;2023-06-14T07:01:58;17.70;99.90
17202;DHT22;8717;53.588;10.176;2023-06-14T07:04:26;18.00;99.90
17202;DHT22;8717;53.588;10.176;2023-06-14T07:06:53;18.50;99.80
17202;DHT22;8717;53.588;10.176;2023-06-14T07:09:19;19.10;99.70
17202;DHT22;8717;53.588;10.176;2023-06-14T07:11:47;19.80;99.00
17202;DHT22;8717;53.588;10.176;2023-06-14T07:14:13;20.70;97.90
17202;DHT22;8717;53.588;10.176;2023-06-14T07:16:40;21.50;97.00
17202;DHT22;8717;53.588;10.176;2023-06-14T07:19:08;22.30;95.50
17202;DHT22;8717;53.588;10.176;2023-06-14T07:21:37;23.10;94.30
17202;DHT22;8717;53.588;10.176;2023-06-14T07:24:04;23.90;92.90
17202;DHT22;8717;53.588;10.176;2023-06-14T07:26:31;24.70;91.80
17202;DHT22;8717;53.588;10.176;2023-06-14T07:28:58;25.50;89.70
17202;DHT22;8717;53.588;10.176;2023-06-14T07:31:25;26.20;87.60
17202;DHT22;8717;53.588;10.176;2023-06-14T07:33:52;26.90;84.10
17202;DHT22;8717;53.588;10.176;2023-06-14T07:36:18;27.50;81.20
17202;DHT22;8717;53.588;10.176;2023-06-14T07:38:47;28.00;77.20
17202;DHT22;8717;53.588;10.176;2023-06-14T07:41:13;28.40;74.90
17202;DHT22;8717;53.588;10.176;2023-06-14T07:43:40;28.90;73.00
17202;DHT22;8717;53.588;10.176;2023-06-14T07:46:07;29.30;70.70
17202;DHT22;8717;53.588;10.176;2023-06-14T07:48:34;29.70;70.10
17202;DHT22;8717;53.588;10.176;2023-06-14T07:51:01;30.10;68.20
17202;DHT22;8717;53.588;10.176;2023-06-14T07:53:28;30.50;66.60
17202;DHT22;8717;53.588;10.176;2023-06-14T07:55:57;30.90;65.30
17202;DHT22;8717;53.588;10.176;2023-06-14T07:58:24;31.30;63.20
17202;DHT22;8717;53.588;10.176;2023-06-14T08:00:51;31.60;61.10
17202;DHT22;8717;53.588;10.176;2023-06-14T08:03:18;31.80;59.90
17202;DHT22;8717;53.588;10.176;2023-06-14T08:05:45;32.00;59.90
17202;DHT22;8717;53.588;10.176;2023-06-14T08:08:11;32.30;59.20
17202;DHT22;8717;53.588;10.176;2023-06-14T08:10:38;32.40;57.50
17202;DHT22;8717;53.588;10.176;2023-06-14T08:13:06;32.60;56.50
17202;DHT22;8717;53.588;10.176;2023-06-14T08:15:34;32.60;54.30
17202;DHT22;8717;53.588;10.176;2023-06-14T08:18:01;32.50;54.30
17202;DHT22;8717;53.588;10.176;2023-06-14T08:20:27;32.40;54.20
17202;DHT22;8717;53.588;10.176;2023-06-14T08:22:55;32.20;54.10
17202;DHT22;8717;53.588;10.176;2023-06-14T08:25:22;32.20;54.50
17202;DHT22;8717;53.588;10.176;2023-06-14T08:27:49;32.20;54.40
17202;DHT22;8717;53.588;10.176;2023-06-14T08:30:17;32.30;54.70
17202;DHT22;8717;53.588;10.176;2023-06-14T08:32:43;32.50;54.60
17202;DHT22;8717;53.588;10.176;2023-06-14T08:35:10;32.80;53.90
17202;DHT22;8717;53.588;10.176;2023-06-14T08:37:41;33.10;53.40
17202;DHT22;8717;53.588;10.176;2023-06-14T08:40:19;33.20;52.10
17202;DHT22;8717;53.588;10.176;2023-06-14T08:42:48;33.20;50.80
17202;DHT22;8717;53.588;10.176;2023-06-14T08:45:18;33.00;50.50
17202;DHT22;8717;53.588;10.176;2023-06-14T08:47:45;32.70;50.60
17202;DHT22;8717;53.588;10.176;2023-06-14T08:50:19;32.50;51.30
17202;DHT22;8717;53.588;10.176;2023-06-14T08:52:48;32.50;51.80
17202;DHT22;8717;53.588;10.176;2023-06-14T08:55:18;32.50;50.70
17202;DHT22;8717;53.588;10.176;2023-06-14T08:57:46;32.50;50.90
17202;DHT22;8717;53.588;10.176;2023-06-14T09:00:15;32.50;50.70
17202;DHT22;8717;53.588;10.176;2023-06-14T09:02:45;32.50;49.20
17202;DHT22;8717;53.588;10.176;2023-06-14T09:05:11;32.40;49.40
17202;DHT22;8717;53.588;10.176;2023-06-14T09:07:39;32.30;49.90
17202;DHT22;8717;53.588;10.176;2023-06-14T09:10:09;32.30;50.40
17202;DHT22;8717;53.588;10.176;2023-06-14T09:12:36;32.40;49.90
17202;DHT22;8717;53.588;10.176;2023-06-14T09:15:04;32.50;50.00
17202;DHT22;8717;53.588;10.176;2023-06-14T09:17:33;32.60;49.30
17202;DHT22;8717;53.588;10.176;2023-06-14T09:20:02;32.70;49.30
17202;DHT22;8717;53.588;10.176;2023-06-14T09:22:32;32.70;48.40
17202;DHT22;8717;53.588;10.176;2023-06-14T09:24:59;32.80;49.10
17202;DHT22;8717;53.588;10.176;2023-06-14T09:27:26;32.90;48.90
17202;DHT22;8717;53.588;10.176;2023-06-14T09:29:53;33.10;48.80
17202;DHT22;8717;53.588;10.176;2023-06-14T09:32:21;33.10;48.00
17202;DHT22;8717;53.588;10.176;2023-06-14T09:34:48;33.10;47.40
17202;DHT22;8717;53.588;10.176;2023-06-14T09:37:28;32.90;47.60
17202;DHT22;8717;53.588;10.176;2023-06-14T09:39:56;32.90;47.70
17202;DHT22;8717;53.588;10.176;2023-06-14T09:42:22;33.00;48.30
17202;DHT22;8717;53.588;10.176;2023-06-14T09:44:51;33.20;48.10
17202;DHT22;8717;53.588;10.176;2023-06-14T09:47:18;33.50;47.70
17202;DHT22;8717;53.588;10.176;2023-06-14T09:49:45;33.70;46.20
17202;DHT22;8717;53.588;10.176;2023-06-14T09:52:15;33.70;45.60
17202;DHT22;8717;53.588;10.176;2023-06-14T09:54:44;33.50;45.40
17202;DHT22;8717;53.588;10.176;2023-06-14T09:57:13;33.20;46.00
17202;DHT22;8717;53.588;10.176;2023-06-14T09:59:42;33.10;46.60
17202;DHT22;8717;53.588;10.176;2023-06-14T10:02:14;33.10;46.80
17202;DHT22;8717;53.588;10.176;2023-06-14T10:04:48;33.10;46.60
17202;DHT22;8717;53.588;10.176;2023-06-14T10:07:19;33.10;45.90
17202;DHT22;8717;53.588;10.176;2023-06-14T10:09:48;33.20;46.30
17202;DHT22;8717;53.588;10.176;2023-06-14T10:12:16;33.20;46.40
17202;DHT22;8717;53.588;10.176;2023-06-14T10:14:48;33.40;46.40
17202;DHT22;8717;53.588;10.176;2023-06-14T10:17:24;33.50;46.50
17202;DHT22;8717;53.588;10.176;2023-06-14T10:19:55;33.70;45.80
17202;DHT22;8717;53.588;10.176;2023-06-14T10:22:29;33.90;45.50
17202;DHT22;8717;53.588;10.176;2023-06-14T10:24:59;34.10;45.10
17202;DHT22;8717;53.588;10.176;2023-06-14T10:27:26;34.20;44.10
17202;DHT22;8717;53.588;10.176;2023-06-14T10:30:03;34.30;44.70
17202;DHT22;8717;53.588;10.176;2023-06-14T10:32:32;34.30;44.60
17202;DHT22;8717;53.588;10.176;2023-06-14T10:35:00;34.40;44.60
17202;DHT22;8717;53.588;10.176;2023-06-14T10:37:27;34.50;44.40
17202;DHT22;8717;53.588;10.176;2023-06-14T10:39:54;34.50;44.20
17202;DHT22;8717;53.588;10.176;2023-06-14T10:42:28;34.40;44.30
17202;DHT22;8717;53.588;10.176;2023-06-14T10:44:55;34.20;43.70
17202;DHT22;8717;53.588;10.176;2023-06-14T10:47:27;34.10;44.10
17202;DHT22;8717;53.588;10.176;2023-06-14T10:49:54;34.00;43.00
17202;DHT22;8717;53.588;10.176;2023-06-14T10:52:24;33.80;43.20
17202;DHT22;8717;53.588;10.176;2023-06-14T10:55:07;33.70;43.30
17202;DHT22;8717;53.588;10.176;2023-06-14T10:57:41;33.40;43.20
17202;DHT22;8717;53.588;10.176;2023-06-14T11:00:09;33.30;43.40
17202;DHT22;8717;53.588;10.176;2023-06-14T11:05:50;32.60;43.70
17202;DHT22;8717;53.588;10.176;2023-06-14T11:08:39;32.30;44.00
17202;DHT22;8717;53.588;10.176;2023-06-14T11:11:07;31.90;44.40
17202;DHT22;8717;53.588;10.176;2023-06-14T11:13:38;31.70;45.00
17202;DHT22;8717;53.588;10.176;2023-06-14T11:16:10;31.50;44.70
17202;DHT22;8717;53.588;10.176;2023-06-14T11:18:38;31.30;45.40
17202;DHT22;8717;53.588;10.176;2023-06-14T11:21:04;31.30;45.70
17202;DHT22;8717;53.588;10.176;2023-06-14T11:23:31;31.30;45.70
17202;DHT22;8717;53.588;10.176;2023-06-14T11:25:58;31.30;45.30
17202;DHT22;8717;53.588;10.176;2023-06-14T11:28:24;31.20;45.20
17202;DHT22;8717;53.588;10.176;2023-06-14T11:31:01;31.00;45.40
17202;DHT22;8717;53.588;10.176;2023-06-14T11:33:28;30.80;45.70
17202;DHT22;8717;53.588;10.176;2023-06-14T11:35:54;30.70;45.80
17202;DHT22;8717;53.588;10.176;2023-06-14T11:38:21;30.60;46.20
17202;DHT22;8717;53.588;10.176;2023-06-14T11:40:48;30.70;46.50
17202;DHT22;8717;53.588;10.176;2023-06-14T11:43:15;30.90;46.80
17202;DHT22;8717;53.588;10.176;2023-06-14T11:45:42;31.10;46.00
17202;DHT22;8717;53.588;10.176;2023-06-14T11:48:10;31.30;46.10
17202;DHT22;8717;53.588;10.176;2023-06-14T11:50:38;31.60;45.90
17202;DHT22;8717;53.588;10.176;2023-06-14T11:53:05;31.90;45.90
17202;DHT22;8717;53.588;10.176;2023-06-14T11:55:36;32.20;46.50
17202;DHT22;8717;53.588;10.176;2023-06-14T11:58:03;32.60;45.40
17202;DHT22;8717;53.588;10.176;2023-06-14T12:00:30;33.00;45.00
17202;DHT22;8717;53.588;10.176;2023-06-14T12:02:57;33.10;44.30
17202;DHT22;8717;53.588;10.176;2023-06-14T12:05:25;33.20;43.90
17202;DHT22;8717;53.588;10.176;2023-06-14T12:07:58;33.20;43.40
17202;DHT22;8717;53.588;10.176;2023-06-14T12:10:25;33.10;43.10
17202;DHT22;8717;53.588;10.176;2023-06-14T12:12:57;32.80;42.90
17202;DHT22;8717;53.588;10.176;2023-06-14T12:15:24;32.60;43.00
17202;DHT22;8717;53.588;10.176;2023-06-14T12:17:51;32.20;44.00
17202;DHT22;8717;53.588;10.176;2023-06-14T12:20:18;31.90;44.00
17202;DHT22;8717;53.588;10.176;2023-06-14T12:22:51;31.50;43.80
17202;DHT22;8717;53.588;10.176;2023-06-14T12:25:26;31.20;43.80
17202;DHT22;8717;53.588;10.176;2023-06-14T12:27:54;31.10;44.60
17202;DHT22;8717;53.588;10.176;2023-06-14T12:30:21;30.90;44.70
17202;DHT22;8717;53.588;10.176;2023-06-14T12:32:48;30.80;44.40
17202;DHT22;8717;53.588;10.176;2023-06-14T12:35:17;30.80;44.80
17202;DHT22;8717;53.588;10.176;2023-06-14T12:37:44;30.80;45.00
17202;DHT22;8717;53.588;10.176;2023-06-14T12:40:13;30.90;45.20
17202;DHT22;8717;53.588;10.176;2023-06-14T12:42:40;30.90;45.00
17202;DHT22;8717;53.588;10.176;2023-06-14T12:45:08;31.10;45.00
17202;DHT22;8717;53.588;10.176;2023-06-14T12:47:35;31.40;45.00
17202;DHT22;8717;53.588;10.176;2023-06-14T12:50:02;31.60;43.90
17202;DHT22;8717;53.588;10.176;2023-06-14T12:52:29;31.70;43.70
17202;DHT22;8717;53.588;10.176;2023-06-14T12:54:56;31.80;43.90
17202;DHT22;8717;53.588;10.176;2023-06-14T12:57:24;31.80;43.80
17202;DHT22;8717;53.588;10.176;2023-06-14T12:59:51;31.80;43.60
17202;DHT22;8717;53.588;10.176;2023-06-14T13:02:19;31.70;43.80
17202;DHT22;8717;53.588;10.176;2023-06-14T13:04:47;31.40;43.10
17202;DHT22;8717;53.588;10.176;2023-06-14T13:07:14;31.20;43.30
17202;DHT22;8717;53.588;10.176;2023-06-14T13:09:41;31.00;43.60
17202;DHT22;8717;53.588;10.176;2023-06-14T13:12:09;31.00;43.80
17202;DHT22;8717;53.588;10.176;2023-06-14T13:14:38;30.90;43.80
17202;DHT22;8717;53.588;10.176;2023-06-14T13:17:07;30.90;44.10
17202;DHT22;8717;53.588;10.176;2023-06-14T13:19:33;30.90;44.20
17202;DHT22;8717;53.588;10.176;2023-06-14T13:22:00;30.70;43.70
17202;DHT22;8717;53.588;10.176;2023-06-14T13:24:27;30.50;43.50
17202;DHT22;8717;53.588;10.176;2023-06-14T13:26:55;30.20;43.60
17202;DHT22;8717;53.588;10.176;2023-06-14T13:29:22;29.90;43.90
17202;DHT22;8717;53.588;10.176;2023-06-14T13:31:51;29.60;44.70
17202;DHT22;8717;53.588;10.176;2023-06-14T13:34:18;29.40;44.80
17202;DHT22;8717;53.588;10.176;2023-06-14T13:36:44;29.30;44.60
17202;DHT22;8717;53.588;10.176;2023-06-14T13:39:11;29.30;44.80
17202;DHT22;8717;53.588;10.176;2023-06-14T13:41:38;29.40;45.20
17202;DHT22;8717;53.588;10.176;2023-06-14T13:44:04;29.40;45.60
17202;DHT22;8717;53.588;10.176;2023-06-14T13:46:31;29.50;45.60
17202;DHT22;8717;53.588;10.176;2023-06-14T13:48:59;29.50;45.60
17202;DHT22;8717;53.588;10.176;2023-06-14T13:51:27;29.60;45.30
17202;DHT22;8717;53.588;10.176;2023-06-14T13:53:54;29.60;44.90
17202;DHT22;8717;53.588;10.176;2023-06-14T13:56:21;29.70;45.20
17202;DHT22;8717;53.588;10.176;2023-06-14T13:58:49;29.80;45.80
17202;DHT22;8717;53.588;10.176;2023-06-14T14:01:16;29.90;45.20
17202;DHT22;8717;53.588;10.176;2023-06-14T14:03:45;30.00;45.20
17202;DHT22;8717;53.588;10.176;2023-06-14T14:06:13;30.10;44.90
17202;DHT22;8717;53.588;10.176;2023-06-14T14:08:39;30.10;44.50
17202;DHT22;8717;53.588;10.176;2023-06-14T14:11:06;30.00;44.20
17202;DHT22;8717;53.588;10.176;2023-06-14T14:13:34;29.80;44.00
17202;DHT22;8717;53.588;10.176;2023-06-14T14:16:02;29.50;44.10
17202;DHT22;8717;53.588;10.176;2023-06-14T14:18:29;29.30;44.50
17202;DHT22;8717;53.588;10.176;2023-06-14T14:20:56;29.00;44.30
17202;DHT22;8717;53.588;10.176;2023-06-14T14:23:24;28.80;44.40
17202;DHT22;8717;53.588;10.176;2023-06-14T14:25:51;28.50;44.60
17202;DHT22;8717;53.588;10.176;2023-06-14T14:28:18;28.40;45.30
17202;DHT22;8717;53.588;10.176;2023-06-14T14:30:46;28.20;45.90
17202;DHT22;8717;53.588;10.176;2023-06-14T14:33:12;28.30;45.70
17202;DHT22;8717;53.588;10.176;2023-06-14T14:35:41;28.30;45.80
17202;DHT22;8717;53.588;10.176;2023-06-14T14:38:08;28.50;45.60
17202;DHT22;8717;53.588;10.176;2023-06-14T14:40:36;28.60;45.10
17202;DHT22;8717;53.588;10.176;2023-06-14T14:43:03;28.70;45.10
17202;DHT22;8717;53.588;10.176;2023-06-14T14:45:30;28.80;44.90
17202;DHT22;8717;53.588;10.176;2023-06-14T14:47:57;28.80;44.50
17202;DHT22;8717;53.588;10.176;2023-06-14T14:50:25;28.70;44.60
17202;DHT22;8717;53.588;10.176;2023-06-14T14:52:51;28.60;44.60
17202;DHT22;8717;53.588;10.176;2023-06-14T14:55:18;28.40;44.90
17202;DHT22;8717;53.588;10.176;2023-06-14T14:57:46;28.40;44.90
17202;DHT22;8717;53.588;10.176;2023-06-14T15:00:14;28.40;44.60
17202;DHT22;8717;53.588;10.176;2023-06-14T15:02:40;28.30;44.60
17202;DHT22;8717;53.588;10.176;2023-06-14T15:05:07;28.20;45.00
17202;DHT22;8717;53.588;10.176;2023-06-14T15:07:34;28.10;45.00
17202;DHT22;8717;53.588;10.176;2023-06-14T15:10:01;28.10;44.50
17202;DHT22;8717;53.588;10.176;2023-06-14T15:12:27;28.00;44.80
17202;DHT22;8717;53.588;10.176;2023-06-14T15:14:55;27.80;45.00
17202;DHT22;8717;53.588;10.176;2023-06-14T15:17:22;27.60;45.20
17202;DHT22;8717;53.588;10.176;2023-06-14T15:19:49;27.50;45.60
17202;DHT22;8717;53.588;10.176;2023-06-14T15:22:16;27.40;45.80
17202;DHT22;8717;53.588;10.176;2023-06-14T15:24:43;27.20;45.80
17202;DHT22;8717;53.588;10.176;2023-06-14T15:27:11;27.20;46.10
17202;DHT22;8717;53.588;10.176;2023-06-14T15:29:39;27.30;46.20
17202;DHT22;8717;53.588;10.176;2023-06-14T15:32:08;27.30;46.40
17202;DHT22;8717;53.588;10.176;2023-06-14T15:34:35;27.30;46.20
17202;DHT22;8717;53.588;10.176;2023-06-14T15:37:03;27.40;46.00
17202;DHT22;8717;53.588;10.176;2023-06-14T15:39:30;27.30;45.70